createdAt,value
2023-03-05T00:05:06.646Z,100296.88
2023-03-05T00:11:49.158Z,100294.22
2023-03-05T00:18:31.893Z,100292.38
2023-03-05T00:25:14.277Z,100270.75
2023-03-05T00:31:56.847Z,100259.41
2023-03-05T00:38:39.226Z,100261.78
2023-03-05T00:45:21.710Z,100257.34
2023-03-05T00:52:04.371Z,100238.28
2023-03-05T00:58:46.863Z,100238.28
2023-03-05T01:05:29.747Z,100231.34
2023-03-05T01:12:12.211Z,100242.44
2023-03-05T01:18:54.883Z,100227.91
2023-03-05T01:25:37.908Z,100225.34
2023-03-05T01:32:20.391Z,100215.94
2023-03-05T01:39:02.871Z,100204.78
2023-03-05T01:46:24.944Z,100179.13
2023-03-05T01:53:07.940Z,100171.59
2023-03-05T01:59:59.405Z,100151.94
2023-03-05T02:06:42.809Z,100155.44
2023-03-05T02:13:33.390Z,100154.53
2023-03-05T02:20:23.987Z,100154.47
2023-03-05T02:27:07.503Z,100150.91
2023-03-05T02:33:51.235Z,100130.13
2023-03-05T02:40:35.092Z,100141.28
2023-03-05T02:47:20.488Z,100135.34
2023-03-05T02:54:03.161Z,100125.91
2023-03-05T03:00:46.841Z,100122.50
2023-03-05T03:07:31.883Z,100114.78
2023-03-05T03:14:14.473Z,100102.88
2023-03-05T03:20:56.912Z,100089.97
2023-03-05T03:27:39.387Z,100086.50
2023-03-05T03:34:21.976Z,100068.34
2023-03-05T03:41:08.050Z,100068.34
2023-03-05T03:47:51.909Z,100050.25
2023-03-05T03:54:34.778Z,100043.31
2023-03-05T04:01:17.159Z,100050.97
2023-03-05T04:08:00.021Z,100051.78
2023-03-05T04:14:42.524Z,100052.59
2023-03-05T04:21:25.072Z,100052.56
2023-03-05T04:28:10.456Z,100060.44
2023-03-05T04:34:52.837Z,100050.19
2023-03-05T04:41:35.104Z,100040.78
2023-03-05T04:48:18.935Z,100018.41
2023-03-05T04:55:01.307Z,100016.66
2023-03-05T05:01:43.738Z,100019.97
2023-03-05T05:08:29.415Z,100010.34
2023-03-05T05:15:13.152Z,100020.66
2023-03-05T05:21:55.479Z,100021.44
2023-03-05T05:28:38.565Z,100016.28
2023-03-05T05:35:20.945Z,100014.56
2023-03-05T05:42:03.599Z,100007.72
2023-03-05T05:48:46.753Z,100012.06
2023-03-05T05:55:29.077Z,100008.81
2023-03-05T06:02:12.340Z,99997.94
2023-03-05T06:08:57.221Z,99999.09
2023-03-05T06:15:39.753Z,99995.91
2023-03-05T06:22:22.055Z,99997.88
2023-03-05T06:29:04.744Z,99993.06
2023-03-05T06:35:47.146Z,99988.16
2023-03-05T06:42:29.404Z,99988.41
2023-03-05T06:49:11.783Z,99987.00
2023-03-05T06:55:56.676Z,99987.34
2023-03-05T07:02:39.387Z,99990.16
2023-03-05T07:09:21.754Z,99979.28
2023-03-05T07:16:09.395Z,99973.53
2023-03-05T07:22:51.749Z,99974.66
2023-03-05T07:29:34.058Z,99984.41
2023-03-05T07:36:16.990Z,99976.03
2023-03-05T07:42:59.309Z,99974.50
2023-03-05T07:49:46.378Z,99969.53
2023-03-05T07:56:35.589Z,99967.09
2023-03-05T08:03:18.492Z,99964.69
2023-03-05T08:10:00.811Z,99959.63
2023-03-05T08:16:43.489Z,99963.22
2023-03-05T08:23:26.268Z,99964.13
2023-03-05T08:30:16.049Z,99964.22
2023-03-05T08:36:58.438Z,99948.75
2023-03-05T08:43:40.823Z,99943.66
2023-03-05T08:50:23.744Z,99937.66
2023-03-05T08:57:06.051Z,99932.50
2023-03-05T09:03:49.214Z,99929.09
2023-03-05T09:10:31.500Z,99929.13
2023-03-05T09:17:14.049Z,99924.81
2023-03-05T09:23:59.704Z,99920.47
2023-03-05T09:30:42.608Z,99921.31
2023-03-05T09:37:25.391Z,99929.09
2023-03-05T09:44:31.943Z,99927.38
2023-03-05T09:51:26.821Z,99929.09
2023-03-05T09:58:19.140Z,99910.00
2023-03-05T10:05:22.868Z,99906.53
2023-03-05T10:12:32.720Z,99903.88
2023-03-05T10:20:04.257Z,99890.91
2023-03-05T10:27:04.502Z,99890.00
2023-03-05T10:34:21.308Z,99889.16
2023-03-05T10:42:02.429Z,99883.97
2023-03-05T10:48:55.716Z,99889.06
2023-03-05T10:55:38.037Z,99889.06
2023-03-05T11:02:22.806Z,99885.66
2023-03-05T11:09:32.272Z,99869.13
2023-03-05T11:16:46.955Z,99870.63
2023-03-05T11:23:29.377Z,99867.69
2023-03-05T11:30:36.389Z,99871.25
2023-03-05T11:37:28.616Z,99861.78
2023-03-05T11:44:27.094Z,99862.81
2023-03-05T11:51:28.689Z,99855.19
2023-03-05T11:58:39.288Z,99859.66
2023-03-05T12:05:22.222Z,99854.47
2023-03-05T12:12:32.404Z,99843.84
2023-03-05T12:19:35.781Z,99849.03
2023-03-05T12:26:39.855Z,99844.50
2023-03-05T12:33:35.031Z,99838.13
2023-03-05T12:40:27.969Z,99826.50
2023-03-05T12:47:12.905Z,99822.50
2023-03-05T12:53:56.256Z,99824.81
2023-03-05T13:00:45.437Z,99814.28
2023-03-05T13:07:27.993Z,99807.22
2023-03-05T13:14:47.492Z,99812.78
2023-03-05T13:21:33.264Z,99817.00
2023-03-05T13:28:17.876Z,99815.56
2023-03-05T13:35:01.600Z,99809.00
2023-03-05T13:41:57.801Z,99815.47
2023-03-05T13:48:40.906Z,99811.34
2023-03-05T13:55:23.326Z,99814.09
2023-03-05T14:02:20.905Z,99803.59
2023-03-05T14:09:38.255Z,99805.16
2023-03-05T14:16:38.317Z,99788.44
2023-03-05T14:23:48.807Z,99777.72
2023-03-05T14:30:32.900Z,99787.09
2023-03-05T14:37:33.030Z,99787.09
2023-03-05T14:44:17.945Z,99779.19
2023-03-05T14:51:01.364Z,99777.31
2023-03-05T14:57:44.158Z,99773.03
2023-03-05T15:04:26.710Z,99775.69
2023-03-05T15:11:11.339Z,99771.44
2023-03-05T15:17:56.136Z,99771.44
2023-03-05T15:24:38.913Z,99777.66
2023-03-05T15:31:21.315Z,99783.78
2023-03-05T15:38:03.804Z,99775.28
2023-03-05T15:44:46.266Z,99778.16
2023-03-05T15:51:28.925Z,99788.78
2023-03-05T15:58:16.439Z,99783.88
2023-03-05T16:04:58.796Z,99779.69
2023-03-05T16:11:48.095Z,99782.47
2023-03-05T16:18:32.694Z,99796.44
2023-03-05T16:25:16.460Z,99793.91
2023-03-05T16:31:59.944Z,99807.81
2023-03-05T16:38:42.845Z,99805.22
2023-03-05T16:45:28.967Z,99800.88
2023-03-05T16:52:18.796Z,99811.28
2023-03-05T16:59:05.843Z,99812.09
2023-03-05T17:05:48.686Z,99814.69
2023-03-05T17:12:31.203Z,99821.53
2023-03-05T17:19:13.933Z,99818.00
2023-03-05T17:25:56.595Z,99813.63
2023-03-05T17:32:39.813Z,99823.09
2023-03-05T17:39:22.543Z,99825.59
2023-03-05T17:46:05.549Z,99821.22
2023-03-05T17:52:48.072Z,99826.34
2023-03-05T17:59:30.418Z,99821.13
2023-03-05T18:06:12.774Z,99820.25
2023-03-05T18:12:55.622Z,99814.13
2023-03-05T18:19:37.965Z,99797.72
2023-03-05T18:26:20.581Z,99801.13
2023-03-05T18:33:03.663Z,99804.56
2023-03-05T18:39:46.039Z,99812.31
2023-03-05T18:46:28.460Z,99814.00
2023-03-05T18:53:14.919Z,99808.75
2023-03-05T18:59:57.382Z,99802.69
2023-03-05T19:06:40.911Z,99808.63
2023-03-05T19:13:45.872Z,99803.38
2023-03-05T19:20:28.429Z,99811.06
2023-03-05T19:27:13.234Z,99803.25
2023-03-05T19:33:55.967Z,99790.25
2023-03-05T19:40:41.662Z,99790.22
2023-03-05T19:47:25.961Z,99790.22
2023-03-05T19:54:09.608Z,99785.00
2023-03-05T20:00:52.113Z,99778.91
2023-03-05T20:07:34.633Z,99783.22
2023-03-05T20:14:17.034Z,99777.97
2023-03-05T20:21:02.050Z,99773.59
2023-03-05T20:27:45.058Z,99768.34
2023-03-05T20:34:27.493Z,99767.41
2023-03-05T20:41:14.012Z,99769.94
2023-03-05T20:47:58.635Z,99763.78
2023-03-05T20:54:41.840Z,99760.31
2023-03-05T21:01:25.491Z,99760.25
2023-03-05T21:08:07.883Z,99755.88
2023-03-05T21:14:50.431Z,99751.56
2023-03-05T21:21:32.856Z,99758.41
2023-03-05T21:28:17.528Z,99742.78
2023-03-05T21:35:00.537Z,99742.75
2023-03-05T21:41:46.562Z,99740.16
2023-03-05T21:48:29.471Z,99735.84
2023-03-05T21:55:17.375Z,99729.78
2023-03-05T22:02:00.627Z,99728.84
2023-03-05T22:08:43.210Z,99709.88
2023-03-05T22:15:25.662Z,99710.72
2023-03-05T22:22:07.971Z,99702.91
2023-03-05T22:28:51.261Z,99701.16
2023-03-05T22:35:33.644Z,99695.91
2023-03-05T22:42:16.027Z,99689.78
2023-03-05T22:48:58.500Z,99688.84
2023-03-05T22:55:43.902Z,99687.03
2023-03-05T23:02:26.228Z,99688.72
2023-03-05T23:09:08.585Z,99681.78
2023-03-05T23:15:51.265Z,99690.31
2023-03-05T23:22:35.214Z,99677.34
2023-03-05T23:29:18.012Z,99683.31
2023-03-05T23:36:01.074Z,99681.53
2023-03-05T23:42:44.105Z,99678.94
2023-03-05T23:49:27.062Z,99674.53
2023-03-05T23:56:12.652Z,99665.06
